Time;durP1;ratioP1;P1;durP2;ratioP2;P2;SDS_P1;SDS_P2;PMS_P1;PMS_P2;Temp;Humidity;BMP_temperature;BMP_pressure;BME280_temperature;BME280_humidity;BME280_pressure;Samples;Min_cycle;Max_cycle;Signal;HPM_P1;HPM_P2
2022/10/09 00:00:19;;;;;;;9.95;6.00;;;;;;;6.27;96.93;102486.47;5090849;28;20081;-91
2022/10/09 00:02:45;;;;;;;15.13;6.35;;;;;;;6.19;96.20;102486.69;5091900;28;20484;-90
2022/10/09 00:05:10;;;;;;;13.77;5.78;;;;;;;6.18;96.55;102481.50;5092719;28;20024;-90
2022/10/09 00:07:35;;;;;;;14.73;6.15;;;;;;;6.12;96.95;102485.16;5091687;28;20073;-91
2022/10/09 00:10:02;;;;;;;11.30;5.90;;;;;;;6.12;96.33;102487.78;5093116;28;20032;-92
2022/10/09 00:12:28;;;;;;;12.65;6.28;;;;;;;6.06;96.76;102482.72;5091969;28;20541;-90
2022/10/09 00:14:53;;;;;;;13.85;5.80;;;;;;;6.01;96.69;102483.75;5093183;28;20028;-91
2022/10/09 00:17:18;;;;;;;16.45;6.82;;;;;;;6.00;96.89;102487.25;5093356;28;20051;-91
2022/10/09 00:19:44;;;;;;;11.77;5.75;;;;;;;6.00;96.65;102488.09;5097320;28;20447;-88
2022/10/09 00:22:12;;;;;;;9.85;5.70;;;;;;;5.93;97.20;102490.03;5111906;28;20031;-91
2022/10/09 00:24:37;;;;;;;13.68;6.28;;;;;;;6.00;97.23;102482.88;5113867;28;20471;-91
2022/10/09 00:27:03;;;;;;;12.85;6.07;;;;;;;5.95;97.28;102484.75;5111691;28;20666;-91
2022/10/09 00:29:28;;;;;;;12.73;6.13;;;;;;;5.93;96.68;102486.56;5112380;28;20035;-91
2022/10/09 00:31:53;;;;;;;12.07;5.78;;;;;;;5.91;96.87;102486.63;5111585;28;20023;-91
2022/10/09 00:34:19;;;;;;;12.85;5.88;;;;;;;5.88;96.54;102484.06;5111095;28;20045;-91
2022/10/09 00:36:44;;;;;;;14.68;6.65;;;;;;;5.89;97.70;102490.13;5112404;28;20375;-88
2022/10/09 00:39:12;;;;;;;15.68;6.25;;;;;;;5.87;97.88;102486.72;5111912;28;20027;-88
2022/10/09 00:41:38;;;;;;;13.13;6.07;;;;;;;5.84;97.29;102484.19;5111702;28;20056;-91
2022/10/09 00:44:42;;;;;;;9.90;5.88;;;;;;;5.88;97.33;102484.06;5111865;28;20055;-91
2022/10/09 00:47:16;;;;;;;13.50;6.25;;;;;;;5.78;98.13;102474.78;5110717;28;20052;-91
2022/10/09 00:49:41;;;;;;;11.55;6.50;;;;;;;5.82;97.88;102478.16;5110801;28;20028;-91
2022/10/09 00:52:07;;;;;;;9.20;5.63;;;;;;;5.73;97.44;102479.28;5111277;28;20035;-91
2022/10/09 00:54:39;;;;;;;11.05;5.90;;;;;;;5.70;96.98;102488.94;5113557;28;20074;-92
2022/10/09 00:57:04;;;;;;;12.17;5.97;;;;;;;5.66;97.33;102478.59;5110992;28;20019;-91
2022/10/09 00:59:30;;;;;;;11.40;6.60;;;;;;;5.62;97.41;102484.78;5111820;28;20295;-92
2022/10/09 01:01:56;;;;;;;9.98;6.63;;;;;;;5.56;97.79;102482.31;5113256;28;20102;-91
2022/10/09 01:04:22;;;;;;;13.18;6.47;;;;;;;5.55;97.55;102472.78;5111696;28;20106;-91
2022/10/09 01:07:05;;;;;;;12.20;6.05;;;;;;;5.58;97.45;102480.53;5112589;28;20039;-92
2022/10/09 01:09:39;;;;;;;12.20;6.25;;;;;;;5.56;96.75;102478.84;5111696;28;20024;-92
2022/10/09 01:12:19;;;;;;;11.65;6.13;;;;;;;5.52;96.57;102480.69;5110809;28;20038;-91
2022/10/09 01:14:57;;;;;;;13.50;6.68;;;;;;;5.48;96.82;102475.59;5113125;28;20098;-92
2022/10/09 01:17:41;;;;;;;14.02;6.20;;;;;;;5.47;97.04;102486.94;5111842;28;20024;-91
2022/10/09 01:20:31;;;;;;;9.27;5.88;;;;;;;5.53;97.78;102486.78;5104631;28;20024;-92
2022/10/09 01:23:34;;;;;;;11.95;6.15;;;;;;;5.50;97.68;102481.63;5090390;28;20057;-91
2022/10/09 01:26:12;;;;;;;11.48;5.97;;;;;;;5.44;97.03;102482.66;5090656;28;20111;-92
2022/10/09 01:28:40;;;;;;;11.02;6.05;;;;;;;5.36;96.85;102482.00;5090536;28;20585;-91
2022/10/09 01:31:06;;;;;;;24.73;6.97;;;;;;;5.32;96.63;102482.97;5091644;28;20036;-92
2022/10/09 01:33:32;;;;;;;10.75;6.05;;;;;;;5.29;96.92;102476.09;5090691;28;20400;-92
2022/10/09 01:36:00;;;;;;;10.70;6.57;;;;;;;5.24;96.58;102474.50;5091244;28;20028;-93
2022/10/09 01:38:27;;;;;;;11.25;6.00;;;;;;;5.26;96.64;102472.72;5090838;28;20073;-92
2022/10/09 01:40:53;;;;;;;9.38;6.78;;;;;;;5.24;96.86;102464.06;5091480;28;20012;-92
2022/10/09 01:43:19;;;;;;;11.88;6.68;;;;;;;5.21;96.73;102457.19;5089108;28;20024;-93
2022/10/09 01:45:46;;;;;;;11.35;6.28;;;;;;;5.18;96.66;102464.19;5090355;28;20058;-89
2022/10/09 01:48:17;;;;;;;10.73;6.03;;;;;;;5.14;96.21;102458.19;5090390;28;20020;-88
2022/10/09 01:50:44;;;;;;;11.07;5.82;;;;;;;5.16;96.76;102455.56;5091193;28;20016;-92
2022/10/09 01:53:14;;;;;;;13.18;5.72;;;;;;;5.09;96.28;102448.78;5090028;28;20523;-92
2022/10/09 01:55:45;;;;;;;12.50;5.55;;;;;;;5.12;96.50;102459.13;5091524;28;20035;-92
2022/10/09 01:58:32;;;;;;;12.43;5.95;;;;;;;5.13;96.74;102450.41;5089731;28;20438;-91
2022/10/09 02:01:14;;;;;;;10.07;6.43;;;;;;;5.09;97.52;102448.78;5104517;28;20031;-93
2022/10/09 02:03:43;;;;;;;10.05;6.40;;;;;;;5.04;97.53;102439.31;5113118;28;20110;-92
2022/10/09 02:06:11;;;;;;;10.48;6.40;;;;;;;5.05;97.66;102434.97;5110794;28;20533;-88
2022/10/09 02:08:38;;;;;;;12.80;6.43;;;;;;;5.03;97.26;102435.00;5110041;28;20502;-91
2022/10/09 02:11:05;;;;;;;12.55;6.60;;;;;;;5.02;97.47;102430.69;5111868;28;20148;-93
2022/10/09 02:13:32;;;;;;;9.90;6.40;;;;;;;4.99;97.61;102432.50;5112334;28;20027;-93
2022/10/09 02:16:16;;;;;;;12.90;6.72;;;;;;;5.00;97.69;102434.22;5111243;28;20024;-93
2022/10/09 02:18:56;;;;;;;12.68;6.30;;;;;;;4.97;97.34;102429.94;5094054;28;20496;-92
2022/10/09 02:21:25;;;;;;;12.68;6.80;;;;;;;4.92;97.31;102429.22;5106391;28;20023;-88
2022/10/09 02:23:53;;;;;;;10.88;6.20;;;;;;;4.94;97.31;102424.81;5111174;28;20106;-88
2022/10/09 02:26:19;;;;;;;10.18;6.82;;;;;;;4.96;97.61;102423.00;5111043;28;20110;-88
2022/10/09 02:28:45;;;;;;;10.07;6.07;;;;;;;4.99;97.76;102425.53;5109406;28;20106;-92
2022/10/09 02:31:19;;;;;;;13.30;6.63;;;;;;;4.91;97.40;102419.66;5110496;28;20077;-92
2022/10/09 02:33:44;;;;;;;11.23;6.90;;;;;;;4.90;97.67;102417.09;5109821;28;20592;-87
2022/10/09 02:36:10;;;;;;;11.85;6.72;;;;;;;4.88;97.58;102417.13;5108318;28;20122;-87
2022/10/09 02:38:35;;;;;;;11.40;6.72;;;;;;;4.84;97.35;102422.47;5109624;28;20475;-88
2022/10/09 02:41:01;;;;;;;13.93;7.15;;;;;;;4.82;97.13;102422.50;5108740;28;20024;-93
2022/10/09 02:43:26;;;;;;;10.25;7.13;;;;;;;4.85;97.52;102414.63;5108799;28;20080;-93
2022/10/09 02:45:52;;;;;;;13.90;7.18;;;;;;;4.83;98.16;102413.78;5110762;28;20535;-92
2022/10/09 02:48:17;;;;;;;12.02;7.00;;;;;;;4.87;98.21;102412.81;5108466;28;20020;-92
2022/10/09 02:50:42;;;;;;;14.80;7.45;;;;;;;4.85;97.93;102425.03;5108402;28;20076;-92
2022/10/09 02:53:08;;;;;;;11.52;7.10;;;;;;;4.86;97.77;102418.06;5110069;28;20034;-92
2022/10/09 02:55:35;;;;;;;12.30;6.97;;;;;;;4.81;97.94;102418.19;5109587;28;20377;-92
2022/10/09 02:58:00;;;;;;;15.18;7.72;;;;;;;4.79;98.14;102421.69;5107657;28;20016;-92
2022/10/09 03:00:26;;;;;;;12.77;7.15;;;;;;;4.86;98.26;102424.16;5110264;28;20412;-92
2022/10/09 03:02:51;;;;;;;13.50;8.13;;;;;;;4.82;98.78;102419.06;5110494;28;20038;-87
2022/10/09 03:05:16;;;;;;;14.48;7.65;;;;;;;4.87;99.03;102411.97;5110248;28;20062;-92
2022/10/09 03:07:49;;;;;;;12.95;8.52;;;;;;;4.92;100.00;102404.88;5111291;28;20035;-92
2022/10/09 03:10:15;;;;;;;19.25;9.60;;;;;;;4.99;100.00;102407.28;5109830;28;20370;-88
2022/10/09 03:12:40;;;;;;;13.45;8.68;;;;;;;4.95;100.00;102405.66;5110824;28;20028;-88
2022/10/09 03:15:15;;;;;;;16.92;8.98;;;;;;;5.03;100.00;102398.47;5111206;28;20019;-92
2022/10/09 03:17:40;;;;;;;12.98;8.73;;;;;;;4.98;100.00;102400.34;5110053;28;20020;-88
2022/10/09 03:20:12;;;;;;;14.88;9.15;;;;;;;5.06;100.00;102407.13;5103906;28;20095;-92
2022/10/09 03:22:37;;;;;;;14.77;8.93;;;;;;;5.08;100.00;102400.13;5107418;28;20030;-92
2022/10/09 03:25:03;;;;;;;16.88;8.57;;;;;;;5.09;100.00;102396.59;5108821;28;20025;-88
2022/10/09 03:27:29;;;;;;;14.82;9.35;;;;;;;5.10;100.00;102406.16;5110320;28;20668;-87
2022/10/09 03:29:58;;;;;;;13.70;8.82;;;;;;;5.14;100.00;102399.94;5110501;28;20096;-87
2022/10/09 03:32:23;;;;;;;14.75;8.32;;;;;;;5.08;100.00;102400.13;5108241;28;20027;-87
2022/10/09 03:34:49;;;;;;;16.15;8.60;;;;;;;5.10;100.00;102403.53;5109400;28;20387;-92
2022/10/09 03:37:14;;;;;;;18.20;8.85;;;;;;;5.07;100.00;102395.78;5109847;28;20181;-92
2022/10/09 03:39:39;;;;;;;17.23;8.45;;;;;;;5.03;100.00;102398.47;5108329;28;20053;-91
2022/10/09 03:42:05;;;;;;;14.85;8.15;;;;;;;5.01;100.00;102400.28;5109704;28;20387;-92
2022/10/09 03:44:30;;;;;;;12.68;7.78;;;;;;;4.93;100.00;102402.22;5109658;28;20407;-91
2022/10/09 03:46:55;;;;;;;14.05;7.55;;;;;;;4.87;99.88;102388.50;5107693;28;20023;-91
2022/10/09 03:49:21;;;;;;;11.98;7.80;;;;;;;4.82;99.66;102393.84;5109451;28;20016;-91
2022/10/09 03:51:46;;;;;;;15.27;7.95;;;;;;;4.74;99.69;102393.13;5109536;28;20027;-87
2022/10/09 03:54:11;;;;;;;17.65;8.13;;;;;;;4.68;99.41;102394.16;5106994;28;20035;-92
2022/10/09 03:56:37;;;;;;;12.00;8.07;;;;;;;4.68;99.33;102401.13;5110193;28;20035;-91
2022/10/09 03:59:04;;;;;;;12.80;7.97;;;;;;;4.61;99.15;102402.16;5108143;28;20019;-91
2022/10/09 04:01:30;;;;;;;11.13;6.90;;;;;;;4.60;98.92;102408.28;5109837;28;20414;-91
2022/10/09 04:03:58;;;;;;;13.75;7.60;;;;;;;4.58;99.35;102415.28;5108731;28;20491;-91
2022/10/09 04:06:23;;;;;;;13.82;7.47;;;;;;;4.53;99.32;102410.16;5111823;28;20458;-92
2022/10/09 04:08:49;;;;;;;11.70;7.47;;;;;;;4.52;98.83;102410.22;5112661;28;20106;-87
2022/10/09 04:11:14;;;;;;;13.32;7.13;;;;;;;4.49;98.65;102407.69;5112055;28;20158;-86
2022/10/09 04:13:39;;;;;;;14.68;7.32;;;;;;;4.47;98.67;102402.50;5114279;28;20110;-91
2022/10/09 04:16:05;;;;;;;10.63;6.93;;;;;;;4.44;98.44;102406.94;5114540;28;20027;-87
2022/10/09 04:18:30;;;;;;;10.60;7.25;;;;;;;4.37;98.52;102396.63;5114159;28;20030;-87
2022/10/09 04:20:56;;;;;;;10.73;6.65;;;;;;;4.36;98.70;102410.53;5098611;28;20023;-90
2022/10/09 04:23:24;;;;;;;10.95;7.38;;;;;;;4.32;98.89;102408.91;5093794;28;20073;-86
2022/10/09 04:25:58;;;;;;;13.95;7.25;;;;;;;4.35;98.74;102407.97;5093503;28;20028;-91
2022/10/09 04:28:28;;;;;;;12.10;6.78;;;;;;;4.29;98.38;102402.91;5093395;28;20016;-91
2022/10/09 04:30:53;;;;;;;10.40;7.20;;;;;;;4.28;98.44;102401.19;5092564;28;20031;-91
2022/10/09 04:33:19;;;;;;;11.20;7.20;;;;;;;4.22;98.41;102397.00;5091465;28;20250;-87
2022/10/09 04:35:48;;;;;;;9.82;6.47;;;;;;;4.24;98.49;102400.41;5092646;28;20055;-91
2022/10/09 04:38:13;;;;;;;10.40;6.95;;;;;;;4.22;98.58;102391.78;5093203;28;20086;-87
2022/10/09 04:40:39;;;;;;;11.13;7.20;;;;;;;4.19;98.46;102397.06;5091593;28;20012;-87
2022/10/09 04:43:05;;;;;;;9.00;6.65;;;;;;;4.23;98.47;102388.28;5091864;28;20035;-89
2022/10/09 04:45:31;;;;;;;13.80;7.20;;;;;;;4.15;98.21;102397.16;5092461;28;20047;-91
2022/10/09 04:47:56;;;;;;;12.60;7.40;;;;;;;4.12;97.76;102394.63;5092379;28;20593;-91
2022/10/09 04:50:22;;;;;;;12.65;7.18;;;;;;;4.10;98.14;102394.66;5091520;28;20032;-89
2022/10/09 04:52:47;;;;;;;10.25;7.30;;;;;;;4.09;98.44;102390.34;5092715;28;20074;-89
2022/10/09 04:55:13;;;;;;;13.27;7.40;;;;;;;4.07;98.21;102392.13;5090120;28;20037;-89
2022/10/09 04:57:38;;;;;;;11.38;7.00;;;;;;;4.05;97.87;102388.72;5091213;28;20388;-86
2022/10/09 05:00:04;;;;;;;11.68;7.18;;;;;;;3.97;97.99;102386.25;5090345;28;20114;-85
2022/10/09 05:02:30;;;;;;;11.70;7.00;;;;;;;3.95;98.52;102385.41;5089797;28;20555;-89
2022/10/09 05:04:56;;;;;;;9.40;6.88;;;;;;;3.96;98.64;102379.31;5090704;28;20450;-89
2022/10/09 05:07:22;;;;;;;10.93;7.03;;;;;;;3.93;97.97;102378.53;5091803;28;20099;-86
2022/10/09 05:09:47;;;;;;;10.88;6.80;;;;;;;3.91;98.67;102375.09;5090874;28;20028;-86
2022/10/09 05:12:12;;;;;;;10.60;7.05;;;;;;;3.90;98.42;102373.41;5089922;28;20165;-89
2022/10/09 05:14:38;;;;;;;10.80;6.85;;;;;;;3.86;98.53;102374.34;5091381;28;20028;-89
2022/10/09 05:17:04;;;;;;;12.75;7.53;;;;;;;3.86;98.44;102374.34;5091114;28;20031;-90
2022/10/09 05:19:32;;;;;;;12.38;7.68;;;;;;;3.84;98.16;102376.13;5093783;28;20596;-89
2022/10/09 05:21:59;;;;;;;14.00;7.95;;;;;;;3.80;98.33;102366.69;5112300;28;20028;-89
2022/10/09 05:24:25;;;;;;;12.45;8.63;;;;;;;3.80;97.99;102367.53;5111746;28;20051;-87
2022/10/09 05:26:50;;;;;;;13.82;8.80;;;;;;;3.77;98.30;102359.78;5112782;28;20024;-88
2022/10/09 05:29:16;;;;;;;11.88;8.88;;;;;;;3.77;98.07;102367.59;5110672;28;20498;-88
2022/10/09 05:31:42;;;;;;;12.98;9.25;;;;;;;3.72;98.25;102365.09;5110563;28;20028;-88
2022/10/09 05:34:08;;;;;;;12.77;9.70;;;;;;;3.68;98.41;102366.06;5112222;28;20110;-89
2022/10/09 05:36:33;;;;;;;12.00;8.90;;;;;;;3.69;98.60;102362.56;5112500;28;20110;-89
2022/10/09 05:39:00;;;;;;;12.13;8.48;;;;;;;3.70;98.86;102356.47;5110140;28;20054;-89
2022/10/09 05:41:25;;;;;;;12.68;8.43;;;;;;;3.71;98.59;102368.59;5111883;28;20016;-89
2022/10/09 05:43:50;;;;;;;9.95;8.13;;;;;;;3.72;98.25;102370.31;5110384;28;20035;-88
2022/10/09 05:46:22;;;;;;;11.48;7.82;;;;;;;3.72;98.89;102370.31;5110366;28;20413;-85
2022/10/09 05:48:53;;;;;;;9.87;8.07;;;;;;;3.70;98.03;102366.88;5110362;28;20403;-88
2022/10/09 05:51:22;;;;;;;12.23;7.70;;;;;;;3.68;98.52;102362.59;5109693;28;20115;-86
2022/10/09 05:53:48;;;;;;;10.93;8.05;;;;;;;3.70;98.77;102371.22;5110935;28;20031;-88
2022/10/09 05:56:28;;;;;;;10.60;7.78;;;;;;;3.66;99.14;102365.25;5109486;28;20118;-88
2022/10/09 05:58:56;;;;;;;11.95;7.72;;;;;;;3.68;98.51;102363.47;5110646;28;20365;-86
2022/10/09 06:01:25;;;;;;;9.60;7.60;;;;;;;3.68;99.43;102366.06;5109953;28;20089;-88
2022/10/09 06:03:52;;;;;;;13.13;7.63;;;;;;;3.69;99.06;102359.97;5110403;28;20111;-88
2022/10/09 06:06:19;;;;;;;10.90;7.47;;;;;;;3.67;98.96;102361.75;5108707;28;20023;-86
2022/10/09 06:08:45;;;;;;;16.52;8.07;;;;;;;3.68;99.21;102367.81;5111703;28;20377;-88
2022/10/09 06:11:17;;;;;;;12.43;8.00;;;;;;;3.67;99.17;102366.94;5109483;28;20024;-88
2022/10/09 06:13:43;;;;;;;14.35;7.85;;;;;;;3.70;99.43;102359.06;5110977;28;20383;-88
2022/10/09 06:16:11;;;;;;;12.55;7.97;;;;;;;3.71;98.99;102362.53;5109794;28;20503;-88
2022/10/09 06:18:38;;;;;;;12.15;8.25;;;;;;;3.76;100.00;102361.53;5111524;28;20026;-88
2022/10/09 06:21:03;;;;;;;11.15;8.07;;;;;;;3.77;100.00;102357.19;5096030;28;20051;-88
2022/10/09 06:23:30;;;;;;;13.70;8.38;;;;;;;3.77;99.33;102363.25;5091104;28;20059;-88
2022/10/09 06:25:59;;;;;;;10.45;8.50;;;;;;;3.80;99.96;102366.69;5089711;28;20024;-88
2022/10/09 06:28:24;;;;;;;14.77;9.18;;;;;;;3.86;100.00;102371.75;5089295;28;20046;-88
2022/10/09 06:30:50;;;;;;;13.63;9.38;;;;;;;3.83;100.00;102366.63;5091162;28;20056;-88
2022/10/09 06:33:15;;;;;;;12.38;8.93;;;;;;;3.88;100.00;102375.19;5089183;28;20034;-88
2022/10/09 06:35:40;;;;;;;14.90;9.32;;;;;;;3.92;100.00;102369.00;5090610;28;20027;-88
2022/10/09 06:38:06;;;;;;;15.20;9.20;;;;;;;3.96;100.00;102373.25;5090735;28;20020;-88
2022/10/09 06:40:37;;;;;;;12.05;9.18;;;;;;;4.00;100.00;102382.72;5090928;28;20020;-88
2022/10/09 06:43:03;;;;;;;14.65;9.68;;;;;;;4.01;100.00;102369.69;5088975;28;20396;-88
2022/10/09 06:45:29;;;;;;;15.30;9.93;;;;;;;4.05;100.00;102368.72;5091048;28;20055;-88
2022/10/09 06:47:58;;;;;;;12.10;8.68;;;;;;;4.10;100.00;102368.63;5090905;28;20028;-87
2022/10/09 06:50:23;;;;;;;15.93;9.82;;;;;;;4.18;100.00;102358.03;5089203;28;20069;-87
2022/10/09 06:52:48;;;;;;;22.02;10.70;;;;;;;4.34;100.00;102365.44;5089702;28;20028;-88
2022/10/09 06:55:14;;;;;;;16.23;9.75;;;;;;;4.40;100.00;102359.22;5087821;28;20036;-88
2022/10/09 06:57:39;;;;;;;17.10;11.00;;;;;;;4.53;100.00;102357.19;5090534;28;20478;-87
2022/10/09 07:00:05;;;;;;;17.00;10.25;;;;;;;4.58;100.00;102360.53;5088811;28;20008;-87
2022/10/09 07:02:31;;;;;;;16.17;9.98;;;;;;;4.68;100.00;102365.47;5089660;28;20020;-87
2022/10/09 07:04:57;;;;;;;20.10;11.38;;;;;;;4.84;100.00;102365.97;5088656;28;20059;-87
2022/10/09 07:07:22;;;;;;;16.67;10.95;;;;;;;4.87;100.00;102363.28;5090097;28;20032;-87
2022/10/09 07:09:47;;;;;;;18.63;11.82;;;;;;;5.03;100.00;102361.09;5089575;28;20418;-87
2022/10/09 07:12:12;;;;;;;15.18;11.52;;;;;;;5.10;100.00;102374.84;5088084;28;20020;-87
2022/10/09 07:14:38;;;;;;;19.48;11.93;;;;;;;5.25;100.00;102366.63;5088587;28;20073;-87
2022/10/09 07:17:04;;;;;;;20.20;12.30;;;;;;;5.39;100.00;102368.84;5089353;28;20412;-87
2022/10/09 07:19:30;;;;;;;16.98;12.15;;;;;;;5.55;100.00;102360.50;5090069;28;20032;-86
2022/10/09 07:21:58;;;;;;;18.15;11.73;;;;;;;5.69;100.00;102367.97;5110465;28;20026;-87
2022/10/09 07:24:24;;;;;;;20.48;12.50;;;;;;;5.78;100.00;102367.69;5108456;28;20020;-87
2022/10/09 07:26:50;;;;;;;19.67;12.60;;;;;;;5.96;100.00;102355.84;5109517;28;20514;-87
2022/10/09 07:29:17;;;;;;;19.40;12.15;;;;;;;6.08;100.00;102362.50;5109049;28;20342;-87
2022/10/09 07:31:43;;;;;;;20.90;12.07;;;;;;;6.20;100.00;102362.09;5110150;28;20034;-87
2022/10/09 07:34:09;;;;;;;20.00;11.52;;;;;;;6.23;100.00;102362.84;5110639;28;20023;-87
2022/10/09 07:36:34;;;;;;;24.35;12.13;;;;;;;6.40;100.00;102358.84;5108979;28;20088;-87
2022/10/09 07:39:00;;;;;;;20.25;12.80;;;;;;;6.52;100.00;102358.47;5109976;28;20026;-87
2022/10/09 07:41:28;;;;;;;20.95;13.80;;;;;;;6.65;100.00;102354.53;5113663;28;20031;-87
2022/10/09 07:43:54;;;;;;;20.08;12.38;;;;;;;6.69;100.00;102355.28;5114589;28;20036;-87
2022/10/09 07:46:22;;;;;;;18.30;12.77;;;;;;;6.74;100.00;102356.81;5113816;28;20019;-87
2022/10/09 07:48:48;;;;;;;20.92;14.02;;;;;;;6.87;100.00;102360.75;5115193;28;20087;-87
2022/10/09 07:51:17;;;;;;;22.83;13.90;;;;;;;6.94;100.00;102363.16;5113423;28;20102;-87
2022/10/09 07:53:43;;;;;;;21.05;14.13;;;;;;;7.07;100.00;102367.06;5113026;28;20083;-87
2022/10/09 07:56:23;;;;;;;19.92;13.68;;;;;;;7.21;100.00;102359.59;5113250;28;20506;-88
2022/10/09 07:58:50;;;;;;;20.92;14.13;;;;;;;7.33;100.00;102361.75;5113287;28;20023;-88
2022/10/09 08:01:16;;;;;;;19.83;13.43;;;;;;;7.52;100.00;102361.94;5112986;28;20023;-88
2022/10/09 08:03:41;;;;;;;20.08;13.20;;;;;;;7.62;100.00;102350.22;5114080;28;20034;-88
2022/10/09 08:06:07;;;;;;;19.00;12.80;;;;;;;7.76;100.00;102355.78;5112664;28;20024;-88
2022/10/09 08:08:32;;;;;;;19.60;12.82;;;;;;;7.92;100.00;102345.56;5112174;28;20498;-88
2022/10/09 08:10:58;;;;;;;15.70;12.93;;;;;;;8.06;100.00;102351.13;5113351;28;20447;-88
2022/10/09 08:13:23;;;;;;;19.58;12.88;;;;;;;8.22;100.00;102345.28;5113004;28;20103;-88
2022/10/09 08:15:49;;;;;;;15.38;11.38;;;;;;;8.32;100.00;102339.59;5113594;28;20045;-88
2022/10/09 08:18:14;;;;;;;18.70;11.32;;;;;;;8.48;100.00;102335.47;5112901;28;20136;-89
2022/10/09 08:20:40;;;;;;;18.38;11.95;;;;;;;8.65;99.60;102342.63;5102332;28;20376;-89
2022/10/09 08:23:05;;;;;;;17.02;11.40;;;;;;;8.82;98.12;102339.31;5093299;28;20056;-86
2022/10/09 08:25:37;;;;;;;16.75;11.60;;;;;;;9.02;97.86;102335.81;5109687;28;20536;-90
2022/10/09 08:28:03;;;;;;;17.85;10.63;;;;;;;9.20;97.25;102336.75;5111711;28;20035;-89
2022/10/09 08:30:28;;;;;;;15.57;10.20;;;;;;;9.37;95.97;102332.47;5113888;28;20045;-90
2022/10/09 08:32:54;;;;;;;13.75;9.68;;;;;;;9.53;95.49;102331.78;5112489;28;20538;-86
2022/10/09 08:35:19;;;;;;;13.45;9.02;;;;;;;9.73;94.19;102331.72;5112477;28;20369;-91
2022/10/09 08:37:45;;;;;;;12.88;8.48;;;;;;;9.89;91.98;102323.97;5113773;28;20103;-91
2022/10/09 08:40:17;;;;;;;14.07;8.35;;;;;;;10.10;90.94;102322.09;5113445;28;20054;-90
2022/10/09 08:42:51;;;;;;;14.50;8.15;;;;;;;10.35;91.86;102322.63;5112327;28;20510;-88
2022/10/09 08:45:18;;;;;;;15.73;8.20;;;;;;;10.43;89.03;102320.50;5112769;27;20056;-91
2022/10/09 08:47:55;;;;;;;14.90;8.63;;;;;;;10.57;87.47;102322.41;5111990;28;20114;-93
2022/10/09 08:50:31;;;;;;;11.90;8.00;;;;;;;10.70;85.52;102312.09;5111440;28;20433;-91
2022/10/09 08:53:07;;;;;;;15.43;8.45;;;;;;;10.85;85.09;102322.72;5111555;28;20039;-87
2022/10/09 08:55:44;;;;;;;22.10;7.75;;;;;;;10.99;83.26;102314.97;5112044;28;20077;-90
2022/10/09 08:58:15;;;;;;;17.40;7.60;;;;;;;11.13;82.65;102314.22;5111400;28;20015;-90
2022/10/09 09:00:45;;;;;;;16.00;6.95;;;;;;;11.34;82.93;102308.75;5111473;28;20107;-90
2022/10/09 09:03:22;;;;;;;12.23;6.35;;;;;;;11.51;81.53;102311.31;5110168;28;20027;-90
2022/10/09 09:06:26;;;;;;;11.90;5.88;;;;;;;11.60;81.63;102297.63;5111542;28;20097;-89
2022/10/09 09:09:15;;;;;;;12.35;6.03;;;;;;;11.79;80.61;102295.72;5107270;28;20469;-91
2022/10/09 09:11:47;;;;;;;12.07;5.75;;;;;;;11.96;76.60;102292.13;5112476;28;20078;-89
2022/10/09 09:14:37;;;;;;;11.77;5.65;;;;;;;12.10;76.62;102291.38;5110236;28;20024;-88
2022/10/09 09:17:17;;;;;;;8.93;4.70;;;;;;;12.21;74.24;102287.16;5111591;28;20451;-90
2022/10/09 09:20:07;;;;;;;10.80;4.95;;;;;;;12.36;75.04;102285.41;5107579;28;20428;-89
2022/10/09 09:22:34;;;;;;;7.78;4.57;;;;;;;12.48;72.75;102283.88;5092270;28;20024;-88
2022/10/09 09:25:12;;;;;;;9.75;4.47;;;;;;;12.64;72.44;102284.66;5089808;28;20020;-90
2022/10/09 09:27:39;;;;;;;14.32;5.30;;;;;;;12.73;71.78;102265.59;5090432;28;20031;-89
2022/10/09 09:30:11;;;;;;;10.07;4.97;;;;;;;12.96;72.42;102266.00;5089556;28;20078;-91
2022/10/09 09:32:42;;;;;;;10.93;5.10;;;;;;;13.06;70.75;102259.22;5092338;28;20020;-91
2022/10/09 09:35:53;;;;;;;12.82;5.65;;;;;;;13.22;72.47;102256.50;5091857;28;20036;-91
2022/10/09 09:38:19;;;;;;;13.10;5.25;;;;;;;13.38;69.63;102251.94;5086565;28;20113;-90
2022/10/09 09:40:44;;;;;;;16.00;5.35;;;;;;;13.43;69.68;102237.50;5091478;28;20126;-90
2022/10/09 09:43:18;;;;;;;9.55;4.82;;;;;;;13.49;68.10;102249.47;5091657;28;20094;-90
2022/10/09 09:45:44;;;;;;;13.07;5.13;;;;;;;13.59;68.85;102236.50;5090052;28;20043;-91
2022/10/09 09:48:37;;;;;;;9.60;4.95;;;;;;;13.68;71.17;102239.41;5091503;28;20032;-91
2022/10/09 09:51:05;;;;;;;11.38;5.75;;;;;;;13.68;69.21;102226.19;5080090;28;20444;-91
2022/10/09 09:53:35;;;;;;;9.57;4.97;;;;;;;13.89;68.01;102217.78;5091289;28;20046;-92
2022/10/09 09:56:01;;;;;;;7.68;4.60;;;;;;;13.99;67.08;102218.88;5092044;28;20491;-92
2022/10/09 09:58:33;;;;;;;11.02;5.25;;;;;;;14.19;66.32;102221.06;5091441;28;20032;-93
2022/10/09 10:01:02;;;;;;;9.85;4.88;;;;;;;14.43;65.01;102220.38;5092202;28;20016;-91
2022/10/09 10:03:29;;;;;;;8.70;5.30;;;;;;;14.49;64.68;102222.63;5089865;28;20391;-88
2022/10/09 10:05:55;;;;;;;10.18;4.50;;;;;;;14.56;65.10;102208.00;5091588;28;20528;-91
2022/10/09 10:08:25;;;;;;;11.55;4.35;;;;;;;14.63;65.37;102210.09;5090194;28;20031;-91
2022/10/09 10:10:54;;;;;;;9.65;4.65;;;;;;;14.72;64.56;102216.56;5090722;28;20016;-89
2022/10/09 10:13:36;;;;;;;11.52;4.20;;;;;;;15.02;64.86;102211.75;5091009;28;20085;-92
2022/10/09 10:16:02;;;;;;;10.97;4.10;;;;;;;15.12;61.69;102205.81;5088670;28;20127;-91
2022/10/09 10:18:31;;;;;;;10.65;4.25;;;;;;;15.08;61.50;102207.81;5090529;28;20073;-91
2022/10/09 10:21:11;;;;;;;12.38;4.32;;;;;;;15.19;62.87;102201.75;5103891;28;20360;-90
2022/10/09 10:23:37;;;;;;;11.43;3.88;;;;;;;15.25;61.90;102201.34;5109867;28;20055;-90
2022/10/09 10:26:34;;;;;;;13.85;4.53;;;;;;;15.26;63.37;102197.72;5110593;28;20062;-89
2022/10/09 10:29:17;;;;;;;9.48;4.25;;;;;;;15.24;63.18;102191.69;5108790;28;20046;-91
2022/10/09 10:31:46;;;;;;;;;;;;;;;15.39;66.15;102187.91;5111983;27;20023;-90
2022/10/09 10:34:18;;;;;;;9.65;3.97;;;;;;;15.35;60.49;102187.28;5109944;28;19912;-90
2022/10/09 10:36:45;;;;;;;10.05;4.07;;;;;;;15.39;59.32;102182.59;5111192;28;20035;-90
2022/10/09 10:39:23;;;;;;;7.65;3.90;;;;;;;15.40;59.39;102172.84;5110219;28;20012;-89
2022/10/09 10:41:50;;;;;;;6.95;3.40;;;;;;;15.46;59.15;102167.09;5111142;28;20383;-91
2022/10/09 10:44:46;;;;;;;11.23;4.03;;;;;;;15.57;60.09;102160.03;5109347;28;20055;-90
2022/10/09 10:47:20;;;;;;;7.32;3.20;;;;;;;15.56;59.20;102160.97;5108658;28;20023;-90
2022/10/09 10:49:45;;;;;;;7.95;3.33;;;;;;;15.76;58.13;102159.56;5111224;28;20032;-90
2022/10/09 10:52:33;;;;;;;7.90;3.38;;;;;;;15.76;59.14;102154.25;5110318;28;20023;-89
2022/10/09 10:55:07;;;;;;;8.93;3.60;;;;;;;15.79;57.33;102156.66;5108745;28;20059;-88
2022/10/09 10:58:15;;;;;;;8.52;3.20;;;;;;;15.92;59.55;102145.97;5110024;28;20102;-90
2022/10/09 11:00:51;;;;;;;7.47;3.00;;;;;;;15.96;57.14;102137.66;5110026;28;20019;-89
2022/10/09 11:03:47;;;;;;;11.05;3.13;;;;;;;16.12;57.89;102134.69;5108823;28;20395;-89
2022/10/09 11:06:28;;;;;;;11.02;3.40;;;;;;;16.18;58.41;102144.84;5108871;28;20043;-90
2022/10/09 11:08:54;;;;;;;12.00;3.67;;;;;;;16.28;57.21;102124.56;5110868;28;20379;-90
2022/10/09 11:11:35;;;;;;;9.30;3.38;;;;;;;16.34;56.49;102135.66;5110210;28;20019;-89
2022/10/09 11:14:29;;;;;;;9.95;3.65;;;;;;;16.45;59.01;102125.06;5110394;28;20071;-88
2022/10/09 11:17:15;;;;;;;8.70;3.08;;;;;;;16.50;57.74;102133.53;5108616;28;20445;-87
2022/10/09 11:19:51;;;;;;;7.78;3.03;;;;;;;16.50;55.26;102122.91;5106083;28;20103;-89
2022/10/09 11:22:45;;;;;;;8.13;3.00;;;;;;;16.51;56.59;102117.47;5088798;28;20107;-90
2022/10/09 11:25:35;;;;;;;7.13;2.85;;;;;;;16.59;58.01;102106.22;5106290;28;20023;-88
2022/10/09 11:28:03;;;;;;;8.02;3.15;;;;;;;16.49;56.29;102110.56;5110367;28;20030;-89
2022/10/09 11:30:35;;;;;;;10.52;3.95;;;;;;;16.64;54.66;102103.19;5109615;28;20398;-90
2022/10/09 11:33:09;;;;;;;8.80;3.17;;;;;;;16.65;55.50;102100.41;5108727;28;20027;-90